createdAt,value
2022-08-09T00:04:03.550Z,100424.91
2022-08-09T00:07:44.897Z,100420.53
2022-08-09T00:11:56.922Z,100417.22
2022-08-09T00:16:06.287Z,100420.97
2022-08-09T00:20:08.606Z,100416.75
2022-08-09T00:24:14.953Z,100403.66
2022-08-09T00:28:16.561Z,100402.75
2022-08-09T00:32:25.261Z,100401.13
2022-08-09T00:36:30.653Z,100396.44
2022-08-09T00:40:32.515Z,100391.72
2022-08-09T00:44:40.256Z,100393.16
2022-08-09T00:48:43.104Z,100395.50
2022-08-09T00:52:52.897Z,100386.63
2022-08-09T00:56:55.515Z,100389.81
2022-08-09T01:00:59.120Z,100389.66
2022-08-09T01:05:21.996Z,100381.94
2022-08-09T01:09:26.600Z,100383.69
2022-08-09T01:14:00.227Z,100379.06
2022-08-09T01:18:14.389Z,100376.41
2022-08-09T01:22:28.326Z,100382.88
2022-08-09T01:26:53.711Z,100386.00
2022-08-09T01:30:59.152Z,100384.88
2022-08-09T01:35:28.516Z,100378.22
2022-08-09T01:39:31.252Z,100388.00
2022-08-09T01:43:50.801Z,100379.94
2022-08-09T01:47:56.227Z,100380.78
2022-08-09T01:52:07.022Z,100381.59
2022-08-09T01:56:11.307Z,100382.16
2022-08-09T02:00:35.234Z,100377.66
2022-08-09T02:04:40.608Z,100381.88
2022-08-09T02:08:59.083Z,100384.97
2022-08-09T02:13:04.323Z,100389.50
2022-08-09T02:17:15.154Z,100388.97
2022-08-09T02:21:38.314Z,100391.81
2022-08-09T02:25:52.755Z,100393.53
2022-08-09T02:29:59.201Z,100404.72
2022-08-09T02:34:13.860Z,100393.56
2022-08-09T02:38:37.467Z,100403.38
2022-08-09T02:42:43.241Z,100395.56
2022-08-09T02:46:46.699Z,100402.00
2022-08-09T02:50:57.072Z,100404.31
2022-08-09T02:55:03.160Z,100398.16
2022-08-09T02:59:26.247Z,100394.88
2022-08-09T03:04:17.475Z,100397.97
2022-08-09T03:08:03.827Z,100392.44
2022-08-09T03:12:10.989Z,100397.75
2022-08-09T03:16:19.254Z,100395.28
2022-08-09T03:20:22.199Z,100398.13
2022-08-09T03:24:36.837Z,100398.47
2022-08-09T03:28:47.772Z,100396.28
2022-08-09T03:32:58.481Z,100398.25
2022-08-09T03:37:10.781Z,100404.97
2022-08-09T03:41:22.522Z,100406.72
2022-08-09T03:46:03.022Z,100418.78
2022-08-09T03:49:58.399Z,100421.59
2022-08-09T03:54:00.612Z,100425.81
2022-08-09T03:58:09.873Z,100434.47
2022-08-09T04:02:19.909Z,100433.94
2022-08-09T04:06:29.016Z,100431.47
2022-08-09T04:10:31.333Z,100443.47
2022-08-09T04:14:54.246Z,100438.47
2022-08-09T04:18:54.662Z,100438.47
2022-08-09T04:22:56.454Z,100446.84
2022-08-09T04:27:00.806Z,100450.75
2022-08-09T04:31:05.916Z,100451.88
2022-08-09T04:35:12.403Z,100456.34
2022-08-09T04:39:14.627Z,100452.72
2022-08-09T04:43:18.059Z,100457.47
2022-08-09T04:47:20.379Z,100457.22
2022-08-09T04:51:22.432Z,100474.19
2022-08-09T04:55:24.571Z,100481.75
2022-08-09T04:59:26.402Z,100484.25
2022-08-09T05:03:43.251Z,100496.81
2022-08-09T05:07:46.540Z,100493.44
2022-08-09T05:11:48.314Z,100495.38
2022-08-09T05:15:56.380Z,100497.63
2022-08-09T05:19:58.750Z,100483.44
2022-08-09T05:24:02.129Z,100497.94
2022-08-09T05:28:04.221Z,100501.56
2022-08-09T05:32:06.028Z,100504.59
2022-08-09T05:36:08.322Z,100505.97
2022-08-09T05:40:10.629Z,100507.63
2022-08-09T05:44:12.344Z,100505.66
2022-08-09T05:48:16.676Z,100503.13
2022-08-09T05:52:19.001Z,100516.50
2022-08-09T05:56:21.124Z,100509.50
2022-08-09T06:00:30.716Z,100520.31
2022-08-09T06:04:36.509Z,100519.47
2022-08-09T06:08:38.145Z,100531.44
2022-08-09T06:12:43.096Z,100531.13
2022-08-09T06:16:44.763Z,100538.59
2022-08-09T06:20:57.822Z,100533.19
2022-08-09T06:25:00.214Z,100538.97
2022-08-09T06:29:05.154Z,100542.16
2022-08-09T06:33:30.358Z,100542.31
2022-08-09T06:37:29.014Z,100551.38
2022-08-09T06:42:01.843Z,100551.78
2022-08-09T06:46:05.124Z,100550.13
2022-08-09T06:50:14.848Z,100559.69
2022-08-09T06:54:21.479Z,100564.78
2022-08-09T06:58:40.765Z,100563.84
2022-08-09T07:02:45.947Z,100567.97
2022-08-09T07:06:53.182Z,100571.88
2022-08-09T07:10:55.443Z,100575.47
2022-08-09T07:14:57.358Z,100577.66
2022-08-09T07:19:05.909Z,100588.38
2022-08-09T07:23:19.133Z,100577.78
2022-08-09T07:27:33.062Z,100582.03
2022-08-09T07:31:38.171Z,100578.38
2022-08-09T07:35:53.567Z,100582.72
2022-08-09T07:39:56.316Z,100589.22
2022-08-09T07:43:58.599Z,100587.88
2022-08-09T07:48:04.769Z,100586.00
2022-08-09T07:52:17.003Z,100590.28
2022-08-09T07:56:26.629Z,100577.06
2022-08-09T08:00:36.426Z,100587.50
2022-08-09T08:04:40.009Z,100586.47
2022-08-09T08:09:00.878Z,100584.19
2022-08-09T08:13:03.983Z,100594.97
2022-08-09T08:17:09.042Z,100585.59
2022-08-09T08:21:13.886Z,100591.72
2022-08-09T08:25:16.069Z,100583.44
2022-08-09T08:29:20.379Z,100589.88
2022-08-09T08:33:40.628Z,100590.13
2022-08-09T08:37:59.981Z,100584.06
2022-08-09T08:42:06.882Z,100585.13
2022-08-09T08:46:32.115Z,100586.97
2022-08-09T08:50:34.945Z,100582.13
2022-08-09T08:54:36.882Z,100589.63
2022-08-09T08:58:39.088Z,100584.69
2022-08-09T09:02:55.838Z,100586.81
2022-08-09T09:07:01.187Z,100596.06
2022-08-09T09:11:05.799Z,100586.72
2022-08-09T09:15:07.842Z,100581.97
2022-08-09T09:23:49.562Z,100578.91
2022-08-09T09:28:06.804Z,100580.09
2022-08-09T09:32:15.380Z,100581.38
2022-08-09T09:36:20.795Z,100581.06
2022-08-09T09:40:41.179Z,100579.97
2022-08-09T09:45:08.312Z,100579.13
2022-08-09T09:49:11.279Z,100579.44
2022-08-09T09:53:57.562Z,100568.69
2022-08-09T09:58:04.138Z,100572.81
2022-08-09T10:02:18.767Z,100560.31
2022-08-09T10:06:22.175Z,100563.34
2022-08-09T10:10:31.430Z,100562.69
2022-08-09T10:14:33.955Z,100575.00
2022-08-09T10:18:35.768Z,100563.06
2022-08-09T10:22:41.608Z,100567.84
2022-08-09T10:26:46.709Z,100568.06
2022-08-09T10:32:20.892Z,100565.75
2022-08-09T10:35:13.260Z,100548.84
2022-08-09T10:39:19.489Z,100555.47
2022-08-09T10:43:48.536Z,100547.59
2022-08-09T10:48:30.304Z,100547.66
2022-08-09T10:53:10.444Z,100542.84
2022-08-09T10:57:14.107Z,100544.66
2022-08-09T11:03:14.103Z,100549.28
2022-08-09T11:06:15.251Z,100540.19
2022-08-09T11:10:39.656Z,100540.50
2022-08-09T11:14:54.912Z,100530.00
2022-08-09T11:18:57.595Z,100538.75
2022-08-09T11:23:00.862Z,100531.66
2022-08-09T11:28:05.485Z,100525.44
2022-08-09T11:31:56.526Z,100532.81
2022-08-09T11:36:01.482Z,100534.97
2022-08-09T11:40:06.521Z,100536.44
2022-08-09T11:44:08.941Z,100535.72
2022-08-09T11:48:26.419Z,100537.44
2022-08-09T11:53:58.950Z,100521.34
2022-08-09T11:56:50.542Z,100519.44
2022-08-09T12:01:03.546Z,100523.84
2022-08-09T12:05:17.438Z,100527.19
2022-08-09T12:09:26.299Z,100512.59
2022-08-09T12:14:08.447Z,100516.31
2022-08-09T12:18:04.058Z,100510.16
2022-08-09T12:22:10.183Z,100503.13
2022-08-09T12:26:25.840Z,100491.94
2022-08-09T12:30:36.814Z,100496.09
2022-08-09T12:34:42.777Z,100490.19
2022-08-09T12:38:46.134Z,100496.69
2022-08-09T12:42:50.986Z,100486.69
2022-08-09T12:46:52.742Z,100491.59
2022-08-09T12:50:55.195Z,100485.44
2022-08-09T12:55:00.775Z,100490.38
2022-08-09T12:59:24.459Z,100479.09
2022-08-09T13:03:56.710Z,100479.50
2022-08-09T13:08:15.848Z,100481.72
2022-08-09T13:12:23.191Z,100464.47
2022-08-09T13:16:46.161Z,100473.38
2022-08-09T13:21:04.536Z,100457.22
2022-08-09T13:25:12.142Z,100451.69
2022-08-09T13:29:42.106Z,100439.50
2022-08-09T13:33:52.589Z,100443.91
2022-08-09T13:37:55.708Z,100446.00
2022-08-09T13:42:12.231Z,100443.03
2022-08-09T13:47:16.281Z,100434.50
2022-08-09T13:50:36.395Z,100446.91
2022-08-09T13:54:41.694Z,100440.34
2022-08-09T13:59:00.375Z,100433.34
2022-08-09T14:03:57.828Z,100424.38
2022-08-09T14:07:24.332Z,100423.88
2022-08-09T14:11:32.203Z,100434.84
2022-08-09T14:16:10.043Z,100415.59
2022-08-09T14:20:10.975Z,100417.81
2022-08-09T14:24:21.905Z,100414.09
2022-08-09T14:28:33.896Z,100409.63
2022-08-09T14:32:37.912Z,100410.66
2022-08-09T14:36:43.028Z,100413.41
2022-08-09T14:41:04.430Z,100404.66
2022-08-09T14:46:57.964Z,100408.91
2022-08-09T14:49:34.607Z,100401.47
2022-08-09T14:53:46.881Z,100399.38
2022-08-09T14:57:50.323Z,100403.44
2022-08-09T15:01:52.062Z,100393.53
2022-08-09T15:05:58.157Z,100396.41
2022-08-09T15:10:10.628Z,100402.56
2022-08-09T15:14:15.495Z,100384.84
2022-08-09T15:18:24.219Z,100390.09
2022-08-09T15:22:27.257Z,100393.63
2022-08-09T15:26:31.844Z,100381.75
2022-08-09T15:30:57.554Z,100373.66
2022-08-09T15:34:56.314Z,100378.00
2022-08-09T15:39:00.126Z,100369.34
2022-08-09T15:43:02.083Z,100371.56
2022-08-09T15:47:05.270Z,100377.13
2022-08-09T15:51:11.495Z,100373.56
2022-08-09T15:55:29.107Z,100363.34
2022-08-09T15:59:37.498Z,100365.78
2022-08-09T16:03:41.692Z,100361.69
2022-08-09T16:07:46.125Z,100368.31
2022-08-09T16:11:57.101Z,100360.56
2022-08-09T16:16:11.376Z,100358.50
2022-08-09T16:20:18.713Z,100369.16
2022-08-09T16:24:33.236Z,100364.78
2022-08-09T16:28:36.243Z,100369.19
2022-08-09T16:32:56.919Z,100358.50
2022-08-09T16:36:59.830Z,100359.78
2022-08-09T16:41:01.481Z,100354.97
2022-08-09T16:45:10.363Z,100363.00
2022-08-09T16:49:25.827Z,100362.28
2022-08-09T16:53:35.193Z,100350.28
2022-08-09T16:58:08.769Z,100361.47
2022-08-09T17:01:59.841Z,100372.69
2022-08-09T17:06:28.500Z,100367.84
2022-08-09T17:10:25.916Z,100374.31
2022-08-09T17:14:28.799Z,100371.97
2022-08-09T17:18:35.413Z,100372.31
2022-08-09T17:22:38.767Z,100369.00
2022-08-09T17:26:53.554Z,100373.13
2022-08-09T17:30:55.422Z,100371.09
2022-08-09T17:35:07.406Z,100370.63
2022-08-09T17:39:14.541Z,100376.72
2022-08-09T17:43:35.456Z,100373.19
2022-08-09T17:47:47.027Z,100372.91
2022-08-09T17:51:52.426Z,100371.56
2022-08-09T17:56:01.026Z,100376.44
2022-08-09T18:00:07.604Z,100380.97
2022-08-09T18:04:13.642Z,100379.28
2022-08-09T18:08:16.219Z,100392.47
2022-08-09T18:12:20.324Z,100392.00
2022-08-09T18:16:29.442Z,100381.31
2022-08-09T18:20:54.198Z,100396.53
2022-08-09T18:24:54.028Z,100397.16
2022-08-09T21:21:56.143Z,100496.03
2022-08-09T21:26:00.271Z,100500.47
2022-08-09T21:30:02.644Z,100504.03
2022-08-09T21:34:05.735Z,100505.13
2022-08-09T21:38:43.202Z,100503.69
2022-08-09T21:53:57.950Z,100509.06
2022-08-09T22:02:36.692Z,100515.97
2022-08-09T22:12:04.283Z,100517.66
2022-08-09T22:15:33.422Z,100520.03
2022-08-09T22:19:58.145Z,100518.47
2022-08-09T22:24:01.960Z,100531.81
2022-08-09T22:28:07.115Z,100521.81
2022-08-09T22:32:29.250Z,100527.34
2022-08-09T22:36:45.652Z,100533.19
2022-08-09T22:40:49.236Z,100530.34
2022-08-09T22:48:11.845Z,100531.28
2022-08-09T22:49:21.856Z,100535.31
2022-08-09T22:53:25.054Z,100538.81
2022-08-09T22:57:35.812Z,100535.06
2022-08-09T23:01:39.740Z,100534.13
2022-08-09T23:05:41.388Z,100530.84
2022-08-09T23:09:47.517Z,100528.13
2022-08-09T23:13:51.687Z,100527.72
2022-08-09T23:17:53.562Z,100518.53
2022-08-09T23:21:55.236Z,100520.59
2022-08-09T23:25:56.949Z,100520.91
2022-08-09T23:29:58.969Z,100523.50
2022-08-09T23:34:00.854Z,100525.94
2022-08-09T23:38:04.240Z,100519.31
2022-08-09T23:42:05.915Z,100522.50
2022-08-09T23:46:07.479Z,100518.66
2022-08-09T23:50:09.419Z,100514.50
2022-08-09T23:54:11.257Z,100508.41
2022-08-09T23:58:25.933Z,100507.69
